Time;durP1;ratioP1;P1;durP2;ratioP2;P2;SDS_P1;SDS_P2;PMS_P1;PMS_P2;Temp;Humidity;BMP_temperature;BMP_pressure;BME280_temperature;BME280_humidity;BME280_pressure;Samples;Min_cycle;Max_cycle;Signal;HPM_P1;HPM_P2
2023/11/24 06:00:47;;;;;;;5.80;1.23;;;7.30;91.00;;;;;;4896425;23;20067;31
2023/11/24 06:02:50;;;;;;;5.70;1.50;;;7.30;91.00;;;;;;4053935;29;19979;-80
2023/11/24 06:04:52;;;;;;;5.03;1.13;;;7.40;90.90;;;;;;4056084;29;20048;-82
2023/11/24 06:06:53;;;;;;;5.95;1.38;;;7.40;91.10;;;;;;4056051;29;20442;-80
2023/11/24 06:08:55;;;;;;;7.45;1.30;;;7.40;90.40;;;;;;4055249;29;20048;-80
2023/11/24 06:10:57;;;;;;;3.83;1.10;;;7.20;90.80;;;;;;4055545;29;20506;-80
2023/11/24 06:12:59;;;;;;;5.18;1.20;;;7.20;90.80;;;;;;4056150;29;20060;-82
2023/11/24 06:15:01;;;;;;;8.20;1.13;;;7.20;90.60;;;;;;4069754;29;20078;-82
2023/11/24 06:17:05;;;;;;;5.10;1.20;;;7.30;90.60;;;;;;4071814;29;20052;-80
2023/11/24 06:19:08;;;;;;;6.10;1.55;;;7.30;90.40;;;;;;4071073;29;20048;-81
2023/11/24 06:21:12;;;;;;;7.57;1.58;;;7.30;90.30;;;;;;4071232;29;20048;-80
2023/11/24 06:23:12;;;;;;;5.05;1.38;;;7.30;89.90;;;;;;4071173;29;20405;-81
2023/11/24 06:25:15;;;;;;;7.53;1.50;;;7.30;89.60;;;;;;4071126;29;20052;-78
2023/11/24 06:27:16;;;;;;;6.20;1.67;;;7.20;89.00;;;;;;4044712;29;20132;-82
2023/11/24 06:29:18;;;;;;;9.20;1.80;;;7.20;90.10;;;;;;4039879;29;20052;-79
2023/11/24 06:31:20;;;;;;;7.03;1.70;;;7.20;90.00;;;;;;4039992;29;20049;-80
2023/11/24 06:33:25;;;;;;;5.65;1.70;;;7.20;90.00;;;;;;4039522;29;20089;-81
2023/11/24 06:35:27;;;;;;;5.60;1.67;;;7.20;89.80;;;;;;4040213;29;20049;-79
2023/11/24 06:37:29;;;;;;;6.18;1.88;;;7.20;89.90;;;;;;4040032;29;20435;-81
2023/11/24 06:39:31;;;;;;;7.72;2.15;;;7.20;90.00;;;;;;4039904;29;20440;-80
2023/11/24 06:41:33;;;;;;;6.35;1.60;;;7.30;90.00;;;;;;4039617;29;20094;-81
2023/11/24 06:43:35;;;;;;;7.38;1.50;;;7.30;89.90;;;;;;4039609;29;20049;-79
2023/11/24 06:45:37;;;;;;;9.27;1.80;;;7.20;91.30;;;;;;4040230;29;20108;-80
2023/11/24 06:47:39;;;;;;;5.30;1.60;;;7.20;90.30;;;;;;4039650;29;20459;-81
2023/11/24 06:49:42;;;;;;;6.70;1.80;;;7.10;90.30;;;;;;4039543;29;20388;-80
2023/11/24 06:51:46;;;;;;;8.52;1.75;;;7.10;90.70;;;;;;4039670;29;20431;-80
2023/11/24 06:53:48;;;;;;;6.03;1.60;;;7.10;90.50;;;;;;4053665;29;20052;-81
2023/11/24 06:55:50;;;;;;;3.92;1.23;;;7.00;90.40;;;;;;4040562;29;20068;-80
2023/11/24 06:57:51;;;;;;;8.25;1.40;;;7.00;90.80;;;;;;4046786;29;20044;-79
2023/11/24 06:59:53;;;;;;;6.57;1.40;;;7.10;90.60;;;;;;4070445;29;20569;-79
2023/11/24 07:01:55;;;;;;;7.05;1.35;;;7.10;90.50;;;;;;4081959;29;20060;-80
2023/11/24 07:03:58;;;;;;;7.18;1.80;;;7.10;90.60;;;;;;4071554;29;20056;-80
2023/11/24 07:06:01;;;;;;;6.78;1.33;;;7.10;90.80;;;;;;4070917;29;20091;-80
2023/11/24 07:08:03;;;;;;;5.25;1.20;;;7.10;90.70;;;;;;4074127;29;20461;-80
2023/11/24 07:10:07;;;;;;;6.15;1.40;;;7.00;90.70;;;;;;4072799;29;20052;-81
2023/11/24 07:12:12;;;;;;;5.85;1.30;;;7.10;90.90;;;;;;4071542;29;20080;-79
2023/11/24 07:14:14;;;;;;;6.97;1.47;;;7.00;90.80;;;;;;4071400;29;20425;-80
2023/11/24 07:16:16;;;;;;;5.93;1.48;;;7.10;90.80;;;;;;4070791;29;20103;-81
2023/11/24 07:18:18;;;;;;;6.07;1.50;;;7.00;90.90;;;;;;4070552;29;20048;-80
2023/11/24 07:20:21;;;;;;;4.38;1.40;;;7.00;91.00;;;;;;4070386;29;20048;-80
2023/11/24 07:22:25;;;;;;;5.63;1.67;;;7.00;91.10;;;;;;4070313;29;20058;-80
2023/11/24 07:24:26;;;;;;;5.78;1.42;;;7.10;91.30;;;;;;4070354;29;20557;-80
2023/11/24 07:26:29;;;;;;;5.55;1.42;;;7.10;91.20;;;;;;4070030;29;20048;-79
2023/11/24 07:28:30;;;;;;;5.00;1.55;;;7.10;91.20;;;;;;4070133;29;20048;-81
2023/11/24 07:30:34;;;;;;;6.07;1.50;;;7.00;91.20;;;;;;4071085;29;20410;-81
2023/11/24 07:32:36;;;;;;;7.32;1.67;;;7.10;91.50;;;;;;4069940;29;20056;-81
2023/11/24 07:34:38;;;;;;;6.28;1.60;;;7.00;91.60;;;;;;4069929;29;20140;-80
2023/11/24 07:36:40;;;;;;;6.57;1.50;;;7.00;91.80;;;;;;4069826;29;20052;-80
2023/11/24 07:38:44;;;;;;;7.43;2.08;;;7.00;91.80;;;;;;4069834;29;20083;-81
2023/11/24 07:40:45;;;;;;;7.00;1.63;;;7.00;92.00;;;;;;4069847;29;20044;-82
2023/11/24 07:42:47;;;;;;;4.82;1.30;;;7.00;92.10;;;;;;4069830;29;20052;-81
2023/11/24 07:44:49;;;;;;;6.25;1.45;;;7.00;92.00;;;;;;4069203;29;20052;-80
2023/11/24 07:46:50;;;;;;;6.28;1.40;;;7.00;92.10;;;;;;4069677;29;20528;-81
2023/11/24 07:48:53;;;;;;;7.05;1.50;;;7.00;92.10;;;;;;4069583;29;20139;-80
2023/11/24 07:50:54;;;;;;;4.78;1.30;;;7.00;92.20;;;;;;4070063;29;20048;-81
2023/11/24 07:52:56;;;;;;;3.90;1.25;;;7.10;92.20;;;;;;4069673;29;20560;-80
2023/11/24 07:54:59;;;;;;;8.57;3.13;;;7.10;92.20;;;;;;4069797;29;20091;-81
2023/11/24 07:57:00;;;;;;;6.30;1.85;;;7.10;92.20;;;;;;4069935;29;20485;-80
2023/11/24 07:59:02;;;;;;;4.90;1.40;;;7.10;92.30;;;;;;4070724;29;20048;-80
2023/11/24 08:01:05;;;;;;;6.30;1.98;;;7.10;92.30;;;;;;4071205;29;20060;-81
2023/11/24 08:03:05;;;;;;;12.38;5.47;;;7.20;92.20;;;;;;4070132;29;20052;-83
2023/11/24 08:05:08;;;;;;;5.30;1.73;;;7.20;92.20;;;;;;4069851;29;20115;-82
2023/11/24 08:07:10;;;;;;;5.80;1.50;;;7.20;92.10;;;;;;4069707;29;20079;-80
2023/11/24 08:09:12;;;;;;;3.42;1.42;;;7.30;92.20;;;;;;4069480;29;20135;-81
2023/11/24 08:11:15;;;;;;;6.10;1.20;;;7.20;92.10;;;;;;4069358;29;20139;-79
2023/11/24 08:13:19;;;;;;;4.68;1.30;;;7.30;92.10;;;;;;4069504;29;20516;-81
2023/11/24 08:15:21;;;;;;;4.10;1.15;;;7.30;92.10;;;;;;4069413;29;20060;-80
2023/11/24 08:17:23;;;;;;;5.18;1.85;;;7.30;92.00;;;;;;4069525;29;20048;-79
2023/11/24 08:19:26;;;;;;;4.45;1.40;;;7.40;91.90;;;;;;4069307;29;20047;-82
2023/11/24 08:21:27;;;;;;;4.75;1.25;;;7.30;91.80;;;;;;4069286;29;20140;-80
2023/11/24 08:23:30;;;;;;;5.03;1.42;;;7.40;91.60;;;;;;4069153;29;20047;-80
2023/11/24 08:25:32;;;;;;;6.10;1.60;;;7.30;91.50;;;;;;4069357;29;20485;-81
2023/11/24 08:27:35;;;;;;;6.60;1.50;;;7.30;90.70;;;;;;4069107;29;20462;-80
2023/11/24 08:29:37;;;;;;;3.88;1.30;;;7.30;90.80;;;;;;4069092;29;20052;-80
2023/11/24 08:31:40;;;;;;;7.55;1.50;;;7.30;90.90;;;;;;4068958;29;20060;-80
2023/11/24 08:33:42;;;;;;;7.22;1.85;;;7.30;90.60;;;;;;4069057;29;20044;-81
2023/11/24 08:35:44;;;;;;;4.45;1.50;;;7.30;90.50;;;;;;4068999;29;20052;-80
2023/11/24 08:37:46;;;;;;;7.22;2.00;;;7.30;90.20;;;;;;4069100;29;20075;-81
2023/11/24 08:39:48;;;;;;;8.00;1.90;;;7.30;90.50;;;;;;4069057;29;20059;-80
2023/11/24 08:41:51;;;;;;;4.40;1.30;;;7.40;90.50;;;;;;4069052;29;20055;-81
2023/11/24 08:43:54;;;;;;;7.75;1.60;;;7.40;90.00;;;;;;4069021;29;20052;-81
2023/11/24 08:45:57;;;;;;;7.40;1.73;;;7.40;90.50;;;;;;4068997;29;20111;-81
2023/11/24 08:47:59;;;;;;;4.45;1.45;;;7.40;90.00;;;;;;4069049;29;20470;-80
2023/11/24 08:50:02;;;;;;;5.43;1.30;;;7.40;90.00;;;;;;4069032;29;20497;-82
2023/11/24 08:52:04;;;;;;;6.07;1.55;;;7.40;90.20;;;;;;4069018;29;20059;-80
2023/11/24 08:54:06;;;;;;;5.78;1.50;;;7.50;89.30;;;;;;4068738;29;20482;-81
2023/11/24 08:56:10;;;;;;;4.63;1.20;;;7.50;89.50;;;;;;4068884;29;20095;-83
2023/11/24 08:58:12;;;;;;;6.20;1.40;;;7.50;89.70;;;;;;4068909;29;20103;-82
2023/11/24 09:00:16;;;;;;;5.07;1.55;;;7.50;89.40;;;;;;4069214;29;20107;-82
2023/11/24 09:02:18;;;;;;;4.32;1.30;;;7.50;90.00;;;;;;4066981;29;20056;-82
2023/11/24 09:04:22;;;;;;;9.10;1.85;;;7.50;89.90;;;;;;4053283;29;20615;-82
2023/11/24 09:06:27;;;;;;;5.50;1.65;;;7.50;90.00;;;;;;4053637;29;20048;-81
2023/11/24 09:08:29;;;;;;;4.03;1.58;;;7.50;90.10;;;;;;4053061;29;20049;-81
2023/11/24 09:10:32;;;;;;;7.13;1.90;;;7.50;90.10;;;;;;4053215;29;20080;-81
2023/11/24 09:12:34;;;;;;;5.18;1.50;;;7.50;90.20;;;;;;4053054;29;20052;-82
2023/11/24 09:14:38;;;;;;;6.35;1.67;;;7.60;90.40;;;;;;4053019;29;20060;-80
2023/11/24 09:16:41;;;;;;;5.50;1.55;;;7.60;90.30;;;;;;4052987;29;20056;-80
2023/11/24 09:18:42;;;;;;;5.90;1.80;;;7.60;90.00;;;;;;4051317;29;20057;-82
2023/11/24 09:20:46;;;;;;;5.82;1.65;;;7.60;90.10;;;;;;4051026;29;20058;-82
2023/11/24 09:22:49;;;;;;;7.25;1.80;;;7.60;89.80;;;;;;4051026;29;20059;-80
2023/11/24 09:24:51;;;;;;;10.27;2.10;;;7.60;89.10;;;;;;4051010;29;20052;-80
2023/11/24 09:26:55;;;;;;;6.68;1.73;;;7.60;88.90;;;;;;4050977;29;20103;-82
2023/11/24 09:28:56;;;;;;;6.55;1.30;;;7.60;87.80;;;;;;4051178;29;20144;-80
2023/11/24 09:30:57;;;;;;;6.20;1.42;;;7.60;87.00;;;;;;4050776;29;20107;-83
2023/11/24 09:33:01;;;;;;;5.95;1.40;;;7.70;87.70;;;;;;4050890;29;20087;-80
2023/11/24 09:35:07;;;;;;;8.00;1.60;;;7.70;87.60;;;;;;4050946;29;20053;-82
2023/11/24 09:37:09;;;;;;;4.88;1.48;;;7.70;88.20;;;;;;4051413;29;20057;-82
2023/11/24 09:39:17;;;;;;;6.95;1.75;;;7.70;88.00;;;;;;4050794;29;20060;-81
2023/11/24 09:41:19;;;;;;;6.43;1.48;;;7.70;87.80;;;;;;4051097;29;20063;-80
2023/11/24 09:43:21;;;;;;;6.05;1.63;;;7.70;87.70;;;;;;4051100;29;20449;-79
2023/11/24 09:45:24;;;;;;;4.55;1.60;;;7.70;87.90;;;;;;4051100;29;20443;-81
2023/11/24 09:47:26;;;;;;;5.88;1.70;;;7.80;87.70;;;;;;4051239;29;20057;-83
2023/11/24 09:49:31;;;;;;;9.95;3.70;;;7.80;87.30;;;;;;4050948;29;20053;-80
2023/11/24 09:51:32;;;;;;;11.45;3.65;;;7.80;88.20;;;;;;4052859;29;20112;-81
2023/11/24 09:53:35;;;;;;;9.25;1.60;;;7.80;87.60;;;;;;4053018;29;20056;-80
2023/11/24 09:55:40;;;;;;;6.97;1.75;;;7.80;87.90;;;;;;4050908;29;20070;-83
2023/11/24 09:57:43;;;;;;;7.97;1.83;;;7.80;87.30;;;;;;4050994;29;20071;-81
2023/11/24 09:59:45;;;;;;;10.77;1.98;;;7.80;87.80;;;;;;4051067;29;20053;-81
2023/11/24 10:01:49;;;;;;;6.28;1.50;;;7.80;86.50;;;;;;4060707;29;20064;-80
2023/11/24 10:03:51;;;;;;;9.00;1.92;;;7.90;86.50;;;;;;4066297;29;20079;-82
2023/11/24 10:05:54;;;;;;;10.38;1.80;;;7.90;87.10;;;;;;4064460;29;20052;-81
2023/11/24 10:07:58;;;;;;;12.65;2.10;;;7.90;87.10;;;;;;4068000;29;20111;-78
2023/11/24 10:09:59;;;;;;;7.63;1.83;;;7.90;85.90;;;;;;4069796;29;20059;-85
2023/11/24 10:12:01;;;;;;;10.98;2.35;;;8.00;85.80;;;;;;4069302;29;20052;-83
2023/11/24 10:14:05;;;;;;;8.73;2.03;;;8.00;84.80;;;;;;4069542;29;20059;-82
2023/11/24 10:16:06;;;;;;;8.35;2.20;;;7.90;85.10;;;;;;4070178;29;20056;-83
2023/11/24 10:18:08;;;;;;;9.45;2.33;;;8.00;84.90;;;;;;4068591;29;20059;-82
2023/11/24 10:20:11;;;;;;;7.75;1.92;;;7.90;82.60;;;;;;4069554;29;20151;-82
2023/11/24 10:22:14;;;;;;;7.50;2.20;;;7.90;81.10;;;;;;4069249;29;20056;-82
2023/11/24 10:24:16;;;;;;;12.30;3.08;;;7.90;81.30;;;;;;4069140;29;20399;-82
2023/11/24 10:26:18;;;;;;;10.52;2.38;;;7.90;82.00;;;;;;4069034;29;20052;-81
2023/11/24 10:28:21;;;;;;;9.90;2.13;;;7.90;81.50;;;;;;4068819;29;20048;-82
2023/11/24 10:30:22;;;;;;;12.48;2.42;;;7.90;82.40;;;;;;4069041;29;20177;-80
2023/11/24 10:32:24;;;;;;;12.65;2.28;;;7.90;80.70;;;;;;4068938;29;20109;-80
2023/11/24 10:34:26;;;;;;;8.80;2.08;;;7.90;81.10;;;;;;4068811;29;20056;-81
2023/11/24 10:36:30;;;;;;;12.95;2.10;;;7.90;80.60;;;;;;4068803;29;20056;-82
2023/11/24 10:38:35;;;;;;;8.88;1.98;;;7.90;80.80;;;;;;4068715;29;20103;-81
2023/11/24 10:40:38;;;;;;;11.20;2.30;;;7.90;81.50;;;;;;4068879;29;20060;-82
2023/11/24 10:42:40;;;;;;;9.75;2.70;;;7.80;80.90;;;;;;4068459;29;20138;-81
2023/11/24 10:44:43;;;;;;;9.50;2.20;;;7.90;81.10;;;;;;4061619;29;20462;-81
2023/11/24 10:46:47;;;;;;;12.10;2.40;;;7.90;81.90;;;;;;4054085;29;20052;-80
2023/11/24 10:49:05;;;;;;;12.30;2.72;;;7.90;82.20;;;;;;4058743;29;20048;-81
2023/11/24 10:51:20;;;;;;;10.02;2.30;;;8.00;82.00;;;;;;4051400;29;20546;-77
2023/11/24 10:53:27;;;;;;;11.70;2.30;;;7.90;80.90;;;;;;4052263;29;20071;-77
2023/11/24 10:55:31;;;;;;;11.73;2.17;;;8.00;82.00;;;;;;4051619;29;20071;-77
2023/11/24 10:57:33;;;;;;;10.48;2.90;;;8.00;81.30;;;;;;4057768;29;20056;-78
2023/11/24 10:59:38;;;;;;;12.80;2.42;;;8.00;81.80;;;;;;4052249;29;20124;-80
2023/11/24 11:01:40;;;;;;;10.95;2.42;;;8.00;81.20;;;;;;4061706;29;20060;-79
2023/11/24 11:03:43;;;;;;;13.63;2.55;;;8.00;81.20;;;;;;4069763;29;20103;-80
2023/11/24 11:05:58;;;;;;;10.45;2.38;;;8.00;80.60;;;;;;4067004;29;20048;-78
2023/11/24 11:08:06;;;;;;;10.60;2.10;;;8.00;81.10;;;;;;4062604;29;20531;-80
2023/11/24 11:10:12;;;;;;;12.30;2.17;;;8.10;79.60;;;;;;4055294;29;20060;-77
2023/11/24 11:12:40;;;;;;;10.82;2.25;;;8.10;80.70;;;;;;4070500;29;20556;-77
2023/11/24 11:14:43;;;;;;;9.30;2.25;;;8.10;78.00;;;;;;4070055;29;20058;-79
2023/11/24 11:16:45;;;;;;;9.30;2.38;;;8.20;78.10;;;;;;4068286;29;20477;-80
2023/11/24 11:18:46;;;;;;;13.82;2.63;;;8.20;78.30;;;;;;4069495;29;20052;-78
2023/11/24 11:20:48;;;;;;;7.60;2.05;;;8.20;78.70;;;;;;4069768;29;20092;-79
2023/11/24 11:23:00;;;;;;;8.60;2.53;;;8.20;76.30;;;;;;4070198;29;20119;-78
2023/11/24 11:25:42;;;;;;;13.70;2.80;;;8.20;77.00;;;;;;4070051;29;20048;-78
2023/11/24 11:27:45;;;;;;;11.73;2.30;;;8.20;78.10;;;;;;4070259;29;20048;-81
2023/11/24 11:29:47;;;;;;;9.07;2.00;;;8.20;76.60;;;;;;4069984;29;20066;-80
2023/11/24 11:31:51;;;;;;;15.77;4.28;;;8.20;77.90;;;;;;4069980;29;20048;-80
2023/11/24 11:33:53;;;;;;;9.93;2.58;;;8.10;76.90;;;;;;4070058;29;20052;-79
2023/11/24 11:36:03;;;;;;;8.68;1.80;;;8.10;77.00;;;;;;4069861;29;20048;-79
2023/11/24 11:38:06;;;;;;;8.48;1.88;;;8.10;77.80;;;;;;4069939;29;20052;-80
2023/11/24 11:40:14;;;;;;;9.43;2.55;;;8.10;77.30;;;;;;4070069;29;20060;-79
2023/11/24 11:42:16;;;;;;;11.85;2.10;;;8.10;77.60;;;;;;4069853;29;20099;-78
2023/11/24 11:44:22;;;;;;;8.95;2.05;;;8.10;77.40;;;;;;4069717;29;20485;-77
2023/11/24 11:46:24;;;;;;;;;;;8.10;77.50;;;;;;4070320;29;20497;-77
2023/11/24 11:48:31;;;;;;;7.97;1.98;;;8.20;77.60;;;;;;4069864;29;19927;-78
2023/11/24 11:50:35;;;;;;;5.93;1.77;;;8.10;78.00;;;;;;4069856;29;20075;-79
2023/11/24 11:52:37;;;;;;;8.20;2.13;;;8.10;78.10;;;;;;4068544;29;20048;-78
2023/11/24 11:54:40;;;;;;;10.18;2.05;;;8.20;78.60;;;;;;4069879;29;20060;-79
2023/11/24 11:56:44;;;;;;;8.73;1.77;;;8.20;78.80;;;;;;4069638;29;20144;-80
2023/11/24 11:58:46;;;;;;;8.70;1.90;;;8.20;78.50;;;;;;4069720;29;20052;-80
2023/11/24 12:00:50;;;;;;;8.80;1.73;;;8.20;78.60;;;;;;4069229;29;20052;-78
2023/11/24 12:02:52;;;;;;;9.23;1.90;;;8.10;78.90;;;;;;4063690;29;20116;-80
2023/11/24 12:04:54;;;;;;;6.53;1.50;;;8.10;78.40;;;;;;4054018;29;20052;-79
2023/11/24 12:06:55;;;;;;;6.95;1.80;;;8.10;78.60;;;;;;4053732;29;20053;-80
2023/11/24 12:08:57;;;;;;;12.02;1.90;;;8.00;77.40;;;;;;4053957;29;20068;-78
2023/11/24 12:10:59;;;;;;;8.88;1.85;;;7.90;77.20;;;;;;4053712;29;20112;-79
2023/11/24 12:13:05;;;;;;;6.38;1.73;;;7.80;76.90;;;;;;4053679;29;20465;-79
2023/11/24 12:15:08;;;;;;;;;;;7.70;75.60;;;;;;4054324;29;20082;-78
2023/11/24 12:17:12;;;;;;;9.18;1.63;;;7.50;76.90;;;;;;4053781;29;20281;-78
2023/11/24 12:19:14;;;;;;;4.18;1.25;;;7.40;78.30;;;;;;4053742;29;20072;-77
2023/11/24 12:21:16;;;;;;;9.27;1.40;;;7.20;81.00;;;;;;4053622;29;20100;-78
2023/11/24 12:23:18;;;;;;;6.63;1.80;;;7.00;84.10;;;;;;4053520;29;20053;-80
2023/11/24 12:25:21;;;;;;;7.72;1.50;;;6.90;81.40;;;;;;4053495;29;20095;-79
2023/11/24 12:27:23;;;;;;;6.75;1.50;;;6.90;83.40;;;;;;4053683;29;20056;-80
2023/11/24 12:29:27;;;;;;;8.95;1.80;;;6.80;84.20;;;;;;4053378;29;20116;-80
2023/11/24 12:31:30;;;;;;;8.93;1.92;;;6.90;85.10;;;;;;4053386;29;20059;-79
2023/11/24 12:33:33;;;;;;;19.30;3.35;;;6.80;85.20;;;;;;4053621;29;20052;-79
2023/11/24 12:35:35;;;;;;;11.98;2.25;;;6.80;84.80;;;;;;4053335;29;20052;-81
2023/11/24 12:37:38;;;;;;;11.27;2.00;;;6.80;86.10;;;;;;4053274;29;20048;-78
2023/11/24 12:39:41;;;;;;;12.05;2.65;;;6.70;85.20;;;;;;4053332;29;20076;-80
2023/11/24 12:41:46;;;;;;;11.23;2.25;;;6.60;84.80;;;;;;4053322;29;20049;-78
2023/11/24 12:43:50;;;;;;;10.10;2.60;;;6.60;86.00;;;;;;4053276;29;20458;-78
2023/11/24 12:45:52;;;;;;;9.70;2.33;;;6.50;86.70;;;;;;4053125;29;20098;-81
2023/11/24 12:48:05;;;;;;;8.10;1.83;;;6.60;86.90;;;;;;4053256;29;20045;-79
2023/11/24 12:50:12;;;;;;;8.85;1.98;;;6.50;86.20;;;;;;4053309;29;20487;-81
2023/11/24 12:52:14;;;;;;;5.45;1.50;;;6.40;86.10;;;;;;4053342;29;20147;-79
2023/11/24 12:54:18;;;;;;;5.72;1.10;;;6.30;87.80;;;;;;4053292;29;20052;-79
2023/11/24 12:56:20;;;;;;;9.52;2.00;;;6.10;86.80;;;;;;4052953;29;20128;-80
2023/11/24 12:58:23;;;;;;;4.10;1.02;;;6.00;87.80;;;;;;4053080;29;20059;-80
2023/11/24 13:00:27;;;;;;;7.07;1.73;;;6.00;87.40;;;;;;4053004;29;20120;-79
2023/11/24 13:02:30;;;;;;;6.63;1.67;;;6.10;87.20;;;;;;4068449;29;20107;-80
2023/11/24 13:04:32;;;;;;;6.22;1.75;;;6.10;88.30;;;;;;4061144;29;20415;-78
2023/11/24 13:06:35;;;;;;;7.85;1.60;;;6.10;87.90;;;;;;4058650;29;20111;-76
2023/11/24 13:08:37;;;;;;;5.57;1.90;;;6.10;88.40;;;;;;4068230;29;20490;-79
2023/11/24 13:10:40;;;;;;;6.95;1.98;;;6.10;88.30;;;;;;4068689;29;20513;-79
2023/11/24 13:12:42;;;;;;;6.53;1.67;;;6.10;88.80;;;;;;4052093;29;20055;-78
2023/11/24 13:14:43;;;;;;;5.80;1.73;;;6.10;89.00;;;;;;4062743;29;20116;-78
2023/11/24 13:16:45;;;;;;;8.82;1.83;;;6.10;89.50;;;;;;4068566;29;20442;-78
2023/11/24 13:18:47;;;;;;;9.23;1.75;;;6.10;90.00;;;;;;4068687;29;20048;-78
2023/11/24 13:20:49;;;;;;;9.95;2.28;;;6.10;90.10;;;;;;4068650;29;20048;-78
2023/11/24 13:22:52;;;;;;;9.52;2.20;;;6.00;89.20;;;;;;4069514;29;20056;-84
2023/11/24 13:24:55;;;;;;;9.73;2.00;;;6.10;90.10;;;;;;4067417;29;20545;-77
2023/11/24 13:26:56;;;;;;;8.05;2.10;;;6.10;89.90;;;;;;4068755;29;20052;-79
2023/11/24 13:28:58;;;;;;;10.27;2.42;;;6.10;89.60;;;;;;4068990;29;20052;-81
2023/11/24 13:31:00;;;;;;;10.60;2.00;;;6.10;89.30;;;;;;4055043;29;20124;-80
2023/11/24 13:33:04;;;;;;;11.00;2.35;;;6.10;90.10;;;;;;4050588;29;20056;-79
2023/11/24 13:35:10;;;;;;;12.00;2.65;;;6.10;90.10;;;;;;4061064;29;20066;-80
2023/11/24 13:37:12;;;;;;;12.43;2.90;;;6.10;90.40;;;;;;4066700;29;20059;-82
2023/11/24 13:39:22;;;;;;;11.30;2.50;;;6.20;90.10;;;;;;4056661;29;20108;-79
2023/11/24 13:41:25;;;;;;;8.75;2.42;;;6.10;90.20;;;;;;4051158;29;20045;-79
2023/11/24 13:43:26;;;;;;;4.90;1.40;;;6.10;90.30;;;;;;4052281;29;20478;-79
2023/11/24 13:45:28;;;;;;;3.90;1.25;;;6.00;89.10;;;;;;4066287;29;20084;-79
2023/11/24 13:47:31;;;;;;;4.78;1.27;;;5.80;88.70;;;;;;4069551;29;20111;-78
2023/11/24 13:49:33;;;;;;;5.93;0.90;;;5.70;89.10;;;;;;4069568;29;20096;-78
2023/11/24 13:51:36;;;;;;;4.18;1.08;;;5.60;89.10;;;;;;4069687;29;20048;-81
2023/11/24 13:53:38;;;;;;;3.90;0.80;;;5.50;89.40;;;;;;4064810;29;20053;-77
2023/11/24 13:55:43;;;;;;;2.80;0.80;;;5.40;88.50;;;;;;4053743;29;20048;-78
2023/11/24 13:57:44;;;;;;;6.65;1.20;;;5.40;89.10;;;;;;4053359;29;20045;-78
2023/11/24 13:59:46;;;;;;;3.85;1.00;;;5.30;89.70;;;;;;4069371;29;20060;-79
2023/11/24 14:01:49;;;;;;;6.63;1.25;;;5.30;89.70;;;;;;4069083;29;20128;-79
2023/11/24 14:03:51;;;;;;;7.18;2.90;;;5.20;90.10;;;;;;4057872;29;20047;-79
2023/11/24 14:05:53;;;;;;;15.88;6.70;;;5.20;90.30;;;;;;4053661;29;20057;-78
2023/11/24 14:07:55;;;;;;;5.35;1.48;;;5.10;90.40;;;;;;4053663;29;20439;-80
2023/11/24 14:09:56;;;;;;;3.75;1.00;;;5.10;91.00;;;;;;4053330;29;20108;-78
2023/11/24 14:11:59;;;;;;;5.10;0.98;;;5.10;90.70;;;;;;4050300;29;20139;-78
2023/11/24 14:14:02;;;;;;;4.13;1.10;;;5.00;90.70;;;;;;4051103;29;20049;-79
2023/11/24 14:16:04;;;;;;;2.72;0.98;;;5.00;90.70;;;;;;4051235;29;20407;-79
2023/11/24 14:18:07;;;;;;;5.28;1.80;;;5.00;90.90;;;;;;4053425;29;20052;-77
2023/11/24 14:20:10;;;;;;;5.90;1.77;;;5.00;90.90;;;;;;4053457;29;20116;-79
2023/11/24 14:22:12;;;;;;;3.88;1.00;;;5.00;90.90;;;;;;4052973;29;20052;-78
2023/11/24 14:24:14;;;;;;;7.60;1.52;;;4.90;90.80;;;;;;4052995;29;20131;-79
2023/11/24 14:26:17;;;;;;;7.22;1.42;;;5.00;90.90;;;;;;4053472;29;20505;-79
2023/11/24 14:28:21;;;;;;;5.03;1.30;;;5.00;91.30;;;;;;4051424;29;20130;-78
2023/11/24 14:30:23;;;;;;;5.72;1.48;;;5.00;91.30;;;;;;4053154;29;20151;-79
2023/11/24 14:32:25;;;;;;;8.18;1.40;;;4.90;91.20;;;;;;4050734;29;20171;-78
2023/11/24 14:34:27;;;;;;;7.20;1.80;;;5.00;91.20;;;;;;4053078;29;20054;-79
2023/11/24 14:36:30;;;;;;;8.38;1.83;;;4.90;90.70;;;;;;4053043;29;20112;-78
2023/11/24 14:38:32;;;;;;;6.43;1.73;;;5.00;91.00;;;;;;4051929;29;20064;-79
2023/11/24 14:40:34;;;;;;;8.85;1.55;;;5.00;91.00;;;;;;4053052;29;20159;-77
2023/11/24 14:42:36;;;;;;;6.70;1.40;;;5.10;91.10;;;;;;4053048;29;20052;-79
2023/11/24 14:44:40;;;;;;;7.05;1.95;;;5.10;90.70;;;;;;4051846;29;20067;-77
2023/11/24 14:46:42;;;;;;;8.85;2.10;;;5.10;90.90;;;;;;4052366;29;20060;-79
2023/11/24 14:48:44;;;;;;;7.93;1.75;;;5.10;91.00;;;;;;4052932;29;20078;-78
2023/11/24 14:50:46;;;;;;;5.38;1.55;;;5.10;90.80;;;;;;4053036;29;20079;-80
2023/11/24 14:52:48;;;;;;;7.70;1.95;;;5.10;90.90;;;;;;4053375;29;20658;-79
2023/11/24 14:54:49;;;;;;;8.15;1.50;;;5.20;90.30;;;;;;4052659;29;20060;-79
2023/11/24 14:56:51;;;;;;;8.63;1.85;;;5.20;90.30;;;;;;4053395;29;20454;-78
2023/11/24 14:58:53;;;;;;;11.10;2.22;;;5.20;90.00;;;;;;4053042;29;20055;-78
2023/11/24 15:00:57;;;;;;;6.63;1.90;;;5.10;90.10;;;;;;4056335;29;20064;-80
2023/11/24 15:03:01;;;;;;;7.82;1.60;;;5.10;90.40;;;;;;4061404;29;20048;-79
2023/11/24 15:05:05;;;;;;;6.78;1.88;;;5.20;90.40;;;;;;4068415;29;20091;-79
2023/11/24 15:07:08;;;;;;;11.32;2.50;;;5.20;90.50;;;;;;4062288;29;20447;-80
2023/11/24 15:09:09;;;;;;;9.25;1.85;;;5.30;90.30;;;;;;4068661;29;20052;-80
2023/11/24 15:11:13;;;;;;;11.05;3.55;;;5.30;90.30;;;;;;4068513;29;20104;-79
2023/11/24 15:13:20;;;;;;;8.68;2.40;;;5.20;90.60;;;;;;4068430;29;20048;-79
2023/11/24 15:15:25;;;;;;;11.05;2.42;;;5.30;90.40;;;;;;4063521;29;20086;-81
2023/11/24 15:17:28;;;;;;;8.13;1.90;;;5.30;90.20;;;;;;4066556;29;20052;-79
2023/11/24 15:19:33;;;;;;;10.02;2.17;;;5.30;90.00;;;;;;4068100;29;20060;-80
2023/11/24 15:21:36;;;;;;;10.15;1.92;;;5.30;90.50;;;;;;4059700;29;20490;-79
2023/11/24 15:23:38;;;;;;;7.05;2.05;;;5.40;90.30;;;;;;4068154;29;20056;-78
2023/11/24 15:25:47;;;;;;;8.40;1.90;;;5.30;90.10;;;;;;4066901;29;20156;-78
2023/11/24 15:27:50;;;;;;;10.50;1.95;;;5.30;90.40;;;;;;4066197;29;20080;-78
2023/11/24 15:29:52;;;;;;;8.57;2.58;;;5.30;90.20;;;;;;4067953;29;20088;-79
2023/11/24 15:31:54;;;;;;;7.28;1.58;;;5.30;90.40;;;;;;4066172;29;20142;-80
2023/11/24 15:33:57;;;;;;;6.45;1.58;;;5.20;90.20;;;;;;4068147;29;20147;-78
2023/11/24 15:36:00;;;;;;;7.68;1.90;;;5.10;90.40;;;;;;4068128;29;20063;-79
2023/11/24 15:38:02;;;;;;;6.97;1.60;;;5.20;90.40;;;;;;4068131;29;20107;-80
2023/11/24 15:40:08;;;;;;;7.93;1.52;;;5.10;90.70;;;;;;4068193;29;20051;-80
2023/11/24 15:42:15;;;;;;;7.10;1.70;;;5.20;91.10;;;;;;4065840;29;20127;-81
2023/11/24 15:44:24;;;;;;;6.78;1.67;;;5.10;90.60;;;;;;4058273;29;20045;-82
2023/11/24 15:46:30;;;;;;;6.40;1.45;;;5.00;90.10;;;;;;4052298;29;20170;-82
2023/11/24 15:48:32;;;;;;;5.45;1.25;;;5.00;90.20;;;;;;4052733;29;20052;-82
2023/11/24 15:50:38;;;;;;;10.60;1.40;;;5.00;90.30;;;;;;4052028;29;20151;-81
2023/11/24 15:52:43;;;;;;;4.78;1.48;;;5.00;90.60;;;;;;4052570;29;20152;-80
2023/11/24 15:54:45;;;;;;;4.85;1.00;;;5.00;90.20;;;;;;4049723;29;20060;-83
2023/11/24 15:56:48;;;;;;;3.60;0.90;;;4.80;89.00;;;;;;4050332;29;20430;-79
2023/11/24 15:58:55;;;;;;;2.97;0.85;;;4.70;88.30;;;;;;4060770;29;20121;-78
2023/11/24 16:01:00;;;;;;;1.38;0.47;;;4.60;86.50;;;;;;4068702;29;20084;-81
2023/11/24 16:03:02;;;;;;;4.63;0.73;;;4.40;86.60;;;;;;4051039;29;20104;-78
2023/11/24 16:05:06;;;;;;;2.88;0.50;;;4.30;86.20;;;;;;4056839;29;20376;-78
2023/11/24 16:07:09;;;;;;;2.00;0.60;;;4.30;87.00;;;;;;4064254;29;20055;-79
2023/11/24 16:09:12;;;;;;;1.58;0.50;;;4.20;86.90;;;;;;4059052;29;20044;-78
2023/11/24 16:11:15;;;;;;;2.20;0.55;;;4.10;87.30;;;;;;4062283;29;20450;-78
2023/11/24 16:13:19;;;;;;;2.05;0.43;;;3.90;87.10;;;;;;4065951;29;20091;-80
2023/11/24 16:15:21;;;;;;;1.70;0.47;;;3.90;88.20;;;;;;4067597;29;20060;-78
2023/11/24 16:17:23;;;;;;;2.17;0.60;;;3.80;87.80;;;;;;4064800;29;20421;-79
2023/11/24 16:19:25;;;;;;;1.85;0.47;;;3.70;88.20;;;;;;4061105;29;20101;-80
2023/11/24 16:21:27;;;;;;;3.58;0.60;;;3.70;88.10;;;;;;4051775;29;20147;-80
2023/11/24 16:23:31;;;;;;;2.58;0.50;;;3.70;88.50;;;;;;4067713;29;20108;-79
2023/11/24 16:25:33;;;;;;;1.80;0.57;;;3.60;88.90;;;;;;4067100;29;20139;-79
2023/11/24 16:27:35;;;;;;;3.47;0.60;;;3.60;88.80;;;;;;4064751;29;20090;-79
2023/11/24 16:29:38;;;;;;;3.25;0.80;;;3.60;88.20;;;;;;4067468;29;20469;-78
2023/11/24 16:31:45;;;;;;;3.22;0.70;;;3.60;89.00;;;;;;4064962;29;20470;-79
2023/11/24 16:33:46;;;;;;;4.10;0.75;;;3.60;88.80;;;;;;4050378;29;20063;-78
2023/11/24 16:35:47;;;;;;;3.47;0.90;;;3.60;88.20;;;;;;4057835;29;20056;-78
2023/11/24 16:37:49;;;;;;;3.72;0.68;;;3.60;89.30;;;;;;4064389;29;20074;-80
2023/11/24 16:39:54;;;;;;;3.47;0.80;;;3.60;87.90;;;;;;4067627;29;20056;-80
2023/11/24 16:41:59;;;;;;;4.25;0.93;;;3.60;88.30;;;;;;4060601;29;20569;-78
2023/11/24 16:44:00;;;;;;;3.47;0.73;;;3.60;87.80;;;;;;4066658;29;20139;-79
2023/11/24 16:46:06;;;;;;;2.70;0.82;;;3.60;88.00;;;;;;4066976;29;20048;-80
2023/11/24 16:48:09;;;;;;;2.25;0.73;;;3.60;88.00;;;;;;4064223;29;20116;-78